<?xml version="1.0" encoding="UTF-8" standalone="no" ?>
<gpx xmlns="http://www.topografix.com/GPX/1/1" xmlns:xsi="http://www.w3.org/2001/XMLSchema-instance" xsi:schemaLocation="http://www.topografix.com/GPX/1/1 http://www.topografix.com/GPX/1/1/gpx.xsd" version="1.1" creator="VisuGPX - https://www.visugpx.com">
  <metadata>
    <name>Ballade des Étangs</name>
    <desc><![CDATA[Un circuit rempli de surprises]]></desc>
  </metadata>
  <wpt lat="46.88793" lon="5.43732">
    <ele>220</ele>
  </wpt>
  <wpt lat="46.90633" lon="5.48814">
    <ele>216.5</ele>
  </wpt>
  <wpt lat="46.90632" lon="5.48815">
    <ele>216.4</ele>
  </wpt>
  <trk>
    <name><![CDATA[Ballade des Étangs_1]]></name>
    <trkseg>
      <trkpt lat="46.88203" lon="5.48131">
        <ele>206.4</ele>
        <extensions>
          <visugpx:TrkExtension xmlns:visugpx="https://www.visugpx.com/editgpx/">
            <visugpx:node>29</visugpx:node>
            </visugpx:TrkExtension>
        </extensions>
      </trkpt>
      <trkpt lat="46.88197" lon="5.4817">
        <ele>206.1</ele>
      </trkpt>
      <trkpt lat="46.88212" lon="5.48177">
        <ele>206.6</ele>
      </trkpt>
      <trkpt lat="46.88214" lon="5.48185">
        <ele>206.6</ele>
      </trkpt>
      <trkpt lat="46.8823" lon="5.48193">
        <ele>207</ele>
      </trkpt>
      <trkpt lat="46.88234" lon="5.48185">
        <ele>207.3</ele>
      </trkpt>
      <trkpt lat="46.88246" lon="5.48188">
        <ele>207.5</ele>
      </trkpt>
      <trkpt lat="46.88255" lon="5.48156">
        <ele>209.1</ele>
      </trkpt>
      <trkpt lat="46.88296" lon="5.48175">
        <ele>209.5</ele>
      </trkpt>
      <trkpt lat="46.88425" lon="5.48235">
        <ele>212</ele>
      </trkpt>
      <trkpt lat="46.88463" lon="5.48263">
        <ele>212</ele>
        <time>2020-09-29T13:32:04Z</time>
        <extensions>
          <visugpx:TrkExtension xmlns:visugpx="https://www.visugpx.com/editgpx/">
            <visugpx:node>22</visugpx:node>
            </visugpx:TrkExtension>
        </extensions>
      </trkpt>
      <trkpt lat="46.8844" lon="5.48319">
        <ele>211</ele>
        <time>2020-09-29T13:33:04Z</time>
      </trkpt>
      <trkpt lat="46.8841" lon="5.48373">
        <ele>210</ele>
        <time>2020-09-29T13:34:07Z</time>
      </trkpt>
      <trkpt lat="46.88406" lon="5.48383">
        <ele>210</ele>
        <time>2020-09-29T13:34:18Z</time>
      </trkpt>
      <trkpt lat="46.88406" lon="5.48395">
        <ele>209</ele>
        <time>2020-09-29T13:34:29Z</time>
      </trkpt>
      <trkpt lat="46.88411" lon="5.48405">
        <ele>209</ele>
        <time>2020-09-29T13:34:40Z</time>
      </trkpt>
      <trkpt lat="46.88418" lon="5.48418">
        <ele>209</ele>
        <time>2020-09-29T13:34:55Z</time>
      </trkpt>
      <trkpt lat="46.88424" lon="5.48436">
        <ele>208</ele>
        <time>2020-09-29T13:35:13Z</time>
      </trkpt>
      <trkpt lat="46.8843" lon="5.48468">
        <ele>207</ele>
        <time>2020-09-29T13:35:44Z</time>
      </trkpt>
      <trkpt lat="46.88448" lon="5.48566">
        <ele>207</ele>
        <time>2020-09-29T13:37:16Z</time>
      </trkpt>
      <trkpt lat="46.88439" lon="5.48577">
        <ele>207</ele>
        <time>2020-09-29T13:37:32Z</time>
      </trkpt>
      <trkpt lat="46.88419" lon="5.48587">
        <ele>207</ele>
        <time>2020-09-29T13:38:00Z</time>
      </trkpt>
      <trkpt lat="46.88407" lon="5.48611">
        <ele>207</ele>
        <time>2020-09-29T13:38:27Z</time>
      </trkpt>
      <trkpt lat="46.88383" lon="5.48659">
        <ele>208</ele>
        <time>2020-09-29T13:39:22Z</time>
      </trkpt>
      <trkpt lat="46.88366" lon="5.48692">
        <ele>209</ele>
        <time>2020-09-29T13:39:59Z</time>
      </trkpt>
      <trkpt lat="46.88309" lon="5.48774">
        <ele>212</ele>
        <time>2020-09-29T13:41:46Z</time>
      </trkpt>
      <trkpt lat="46.88252" lon="5.48837">
        <ele>211</ele>
        <time>2020-09-29T13:43:21Z</time>
      </trkpt>
      <trkpt lat="46.8821" lon="5.48872">
        <ele>208</ele>
        <time>2020-09-29T13:44:26Z</time>
      </trkpt>
      <trkpt lat="46.88189" lon="5.48886">
        <ele>207</ele>
        <time>2020-09-29T13:44:56Z</time>
      </trkpt>
      <trkpt lat="46.88123" lon="5.48928">
        <ele>207</ele>
        <time>2020-09-29T13:46:33Z</time>
      </trkpt>
      <trkpt lat="46.88118" lon="5.4894">
        <ele>207</ele>
        <time>2020-09-29T13:46:45Z</time>
      </trkpt>
      <trkpt lat="46.88115" lon="5.48967">
        <ele>207</ele>
        <time>2020-09-29T13:47:10Z</time>
      </trkpt>
      <trkpt lat="46.88111" lon="5.48987">
        <ele>206</ele>
        <time>2020-09-29T13:47:29Z</time>
      </trkpt>
      <trkpt lat="46.88103" lon="5.49013">
        <ele>206</ele>
        <time>2020-09-29T13:47:55Z</time>
      </trkpt>
      <trkpt lat="46.88079" lon="5.49069">
        <ele>206</ele>
        <time>2020-09-29T13:48:56Z</time>
      </trkpt>
      <trkpt lat="46.88072" lon="5.49082">
        <ele>206</ele>
        <time>2020-09-29T13:49:11Z</time>
      </trkpt>
      <trkpt lat="46.88059" lon="5.49097">
        <ele>207</ele>
        <time>2020-09-29T13:49:33Z</time>
      </trkpt>
      <trkpt lat="46.88044" lon="5.49114">
        <ele>208</ele>
        <time>2020-09-29T13:49:58Z</time>
      </trkpt>
      <trkpt lat="46.88029" lon="5.49134">
        <ele>209</ele>
        <time>2020-09-29T13:50:25Z</time>
      </trkpt>
      <trkpt lat="46.88018" lon="5.49155">
        <ele>210</ele>
        <time>2020-09-29T13:50:49Z</time>
      </trkpt>
      <trkpt lat="46.8801" lon="5.49171">
        <ele>211</ele>
        <time>2020-09-29T13:51:07Z</time>
      </trkpt>
      <trkpt lat="46.88" lon="5.49183">
        <ele>212</ele>
        <time>2020-09-29T13:51:25Z</time>
      </trkpt>
      <trkpt lat="46.87988" lon="5.49185">
        <ele>212</ele>
        <time>2020-09-29T13:51:41Z</time>
      </trkpt>
      <trkpt lat="46.87976" lon="5.49183">
        <ele>212</ele>
        <time>2020-09-29T13:51:57Z</time>
      </trkpt>
      <trkpt lat="46.87963" lon="5.49177">
        <ele>212</ele>
        <time>2020-09-29T13:52:15Z</time>
      </trkpt>
      <trkpt lat="46.87949" lon="5.49165">
        <ele>212</ele>
        <time>2020-09-29T13:52:37Z</time>
      </trkpt>
      <trkpt lat="46.87938" lon="5.49149">
        <ele>211</ele>
        <time>2020-09-29T13:52:57Z</time>
      </trkpt>
      <trkpt lat="46.87924" lon="5.49135">
        <ele>211</ele>
        <time>2020-09-29T13:53:20Z</time>
      </trkpt>
      <trkpt lat="46.87912" lon="5.49131">
        <ele>211</ele>
        <time>2020-09-29T13:53:37Z</time>
      </trkpt>
      <trkpt lat="46.87924" lon="5.49148">
        <ele>212</ele>
        <time>2020-09-29T13:53:59Z</time>
      </trkpt>
      <trkpt lat="46.87935" lon="5.49187">
        <ele>212</ele>
        <time>2020-09-29T13:54:37Z</time>
      </trkpt>
      <trkpt lat="46.87956" lon="5.49282">
        <ele>216</ele>
        <time>2020-09-29T13:56:08Z</time>
      </trkpt>
      <trkpt lat="46.87961" lon="5.49465">
        <ele>220</ele>
        <time>2020-09-29T13:58:55Z</time>
      </trkpt>
      <trkpt lat="46.87967" lon="5.49676">
        <ele>221</ele>
        <time>2020-09-29T14:02:08Z</time>
      </trkpt>
      <trkpt lat="46.8797" lon="5.49766">
        <ele>220</ele>
        <time>2020-09-29T14:03:30Z</time>
      </trkpt>
      <trkpt lat="46.87975" lon="5.4998">
        <ele>219</ele>
        <time>2020-09-29T14:06:46Z</time>
      </trkpt>
      <trkpt lat="46.87979" lon="5.4999">
        <ele>218</ele>
        <time>2020-09-29T14:06:56Z</time>
      </trkpt>
      <trkpt lat="46.87987" lon="5.49998">
        <ele>218</ele>
        <time>2020-09-29T14:07:09Z</time>
      </trkpt>
      <trkpt lat="46.88019" lon="5.50005">
        <ele>218</ele>
        <time>2020-09-29T14:07:52Z</time>
      </trkpt>
      <trkpt lat="46.88081" lon="5.50012">
        <ele>220</ele>
        <time>2020-09-29T14:09:15Z</time>
      </trkpt>
      <trkpt lat="46.88113" lon="5.50018">
        <ele>219</ele>
        <time>2020-09-29T14:09:58Z</time>
      </trkpt>
      <trkpt lat="46.88166" lon="5.50024">
        <ele>217</ele>
        <time>2020-09-29T14:11:09Z</time>
      </trkpt>
      <trkpt lat="46.88206" lon="5.50031">
        <ele>216</ele>
        <time>2020-09-29T14:12:03Z</time>
      </trkpt>
      <trkpt lat="46.88227" lon="5.50045">
        <ele>215</ele>
        <time>2020-09-29T14:12:34Z</time>
      </trkpt>
      <trkpt lat="46.88237" lon="5.50045">
        <ele>214</ele>
        <time>2020-09-29T14:12:47Z</time>
      </trkpt>
      <trkpt lat="46.88312" lon="5.50017">
        <ele>217</ele>
        <time>2020-09-29T14:14:30Z</time>
      </trkpt>
      <trkpt lat="46.8838" lon="5.50027">
        <ele>221</ele>
        <time>2020-09-29T14:16:02Z</time>
      </trkpt>
      <trkpt lat="46.88534" lon="5.50054">
        <ele>224</ele>
        <time>2020-09-29T14:19:29Z</time>
      </trkpt>
      <trkpt lat="46.88638" lon="5.50068">
        <ele>220</ele>
        <time>2020-09-29T14:21:48Z</time>
      </trkpt>
      <trkpt lat="46.88655" lon="5.50069">
        <ele>219</ele>
        <time>2020-09-29T14:22:11Z</time>
      </trkpt>
      <trkpt lat="46.8869" lon="5.50051">
        <ele>218</ele>
        <time>2020-09-29T14:23:00Z</time>
      </trkpt>
      <trkpt lat="46.88701" lon="5.50047">
        <ele>218</ele>
        <time>2020-09-29T14:23:15Z</time>
      </trkpt>
      <trkpt lat="46.88714" lon="5.50047">
        <ele>218</ele>
        <time>2020-09-29T14:23:33Z</time>
      </trkpt>
      <trkpt lat="46.88744" lon="5.50039">
        <ele>217</ele>
        <time>2020-09-29T14:24:13Z</time>
      </trkpt>
      <trkpt lat="46.88758" lon="5.50029">
        <ele>217</ele>
        <time>2020-09-29T14:24:34Z</time>
      </trkpt>
      <trkpt lat="46.88786" lon="5.50026">
        <ele>215</ele>
        <time>2020-09-29T14:25:12Z</time>
      </trkpt>
      <trkpt lat="46.88794" lon="5.5002">
        <ele>215</ele>
        <time>2020-09-29T14:25:24Z</time>
      </trkpt>
      <trkpt lat="46.888" lon="5.50009">
        <ele>215</ele>
        <time>2020-09-29T14:25:36Z</time>
      </trkpt>
      <trkpt lat="46.88805" lon="5.49986">
        <ele>215</ele>
        <time>2020-09-29T14:25:58Z</time>
      </trkpt>
      <trkpt lat="46.88813" lon="5.49938">
        <ele>217</ele>
        <time>2020-09-29T14:26:43Z</time>
      </trkpt>
      <trkpt lat="46.88824" lon="5.49898">
        <ele>217</ele>
        <time>2020-09-29T14:27:23Z</time>
      </trkpt>
      <trkpt lat="46.88857" lon="5.49811">
        <ele>213</ele>
        <time>2020-09-29T14:28:54Z</time>
      </trkpt>
      <trkpt lat="46.88885" lon="5.49743">
        <ele>211</ele>
        <time>2020-09-29T14:30:06Z</time>
      </trkpt>
      <trkpt lat="46.88901" lon="5.49711">
        <ele>212</ele>
        <time>2020-09-29T14:30:42Z</time>
      </trkpt>
      <trkpt lat="46.88926" lon="5.49667">
        <ele>214</ele>
        <time>2020-09-29T14:31:34Z</time>
      </trkpt>
      <trkpt lat="46.88943" lon="5.49632">
        <ele>216</ele>
        <time>2020-09-29T14:32:13Z</time>
      </trkpt>
      <trkpt lat="46.88976" lon="5.49573">
        <ele>217</ele>
        <time>2020-09-29T14:33:23Z</time>
      </trkpt>
      <trkpt lat="46.88993" lon="5.49532">
        <ele>218</ele>
        <time>2020-09-29T14:34:07Z</time>
      </trkpt>
      <trkpt lat="46.88998" lon="5.49518">
        <ele>218</ele>
        <time>2020-09-29T14:34:21Z</time>
      </trkpt>
      <trkpt lat="46.88998" lon="5.49511">
        <ele>218</ele>
        <time>2020-09-29T14:34:28Z</time>
      </trkpt>
      <trkpt lat="46.89007" lon="5.4951">
        <ele>218</ele>
        <time>2020-09-29T14:34:40Z</time>
      </trkpt>
      <trkpt lat="46.89076" lon="5.49579">
        <ele>217</ele>
        <time>2020-09-29T14:36:31Z</time>
      </trkpt>
      <trkpt lat="46.89098" lon="5.49606">
        <ele>217</ele>
        <time>2020-09-29T14:37:09Z</time>
      </trkpt>
      <trkpt lat="46.89114" lon="5.49624">
        <ele>217</ele>
        <time>2020-09-29T14:37:36Z</time>
      </trkpt>
      <trkpt lat="46.8917" lon="5.49689">
        <ele>217</ele>
        <time>2020-09-29T14:39:12Z</time>
      </trkpt>
      <trkpt lat="46.89208" lon="5.4973">
        <ele>217</ele>
        <time>2020-09-29T14:40:15Z</time>
      </trkpt>
      <trkpt lat="46.89249" lon="5.49771">
        <ele>217</ele>
        <time>2020-09-29T14:41:21Z</time>
      </trkpt>
      <trkpt lat="46.89373" lon="5.49882">
        <ele>217</ele>
        <time>2020-09-29T14:44:35Z</time>
      </trkpt>
      <trkpt lat="46.89398" lon="5.49908">
        <ele>217</ele>
        <time>2020-09-29T14:45:16Z</time>
      </trkpt>
      <trkpt lat="46.89428" lon="5.49962">
        <ele>218</ele>
        <time>2020-09-29T14:46:19Z</time>
      </trkpt>
      <trkpt lat="46.8944" lon="5.5">
        <ele>218</ele>
        <time>2020-09-29T14:46:58Z</time>
      </trkpt>
      <trkpt lat="46.89443" lon="5.50044">
        <ele>217</ele>
        <time>2020-09-29T14:47:38Z</time>
      </trkpt>
      <trkpt lat="46.89455" lon="5.50115">
        <ele>217</ele>
        <time>2020-09-29T14:48:45Z</time>
      </trkpt>
      <trkpt lat="46.89469" lon="5.50151">
        <ele>218</ele>
        <time>2020-09-29T14:49:22Z</time>
      </trkpt>
      <trkpt lat="46.89485" lon="5.50166">
        <ele>219</ele>
        <time>2020-09-29T14:49:48Z</time>
      </trkpt>
      <trkpt lat="46.89497" lon="5.50188">
        <ele>219</ele>
        <time>2020-09-29T14:50:13Z</time>
      </trkpt>
      <trkpt lat="46.8951" lon="5.50201">
        <ele>220</ele>
        <time>2020-09-29T14:50:34Z</time>
      </trkpt>
      <trkpt lat="46.89514" lon="5.5022">
        <ele>221</ele>
        <time>2020-09-29T14:50:52Z</time>
      </trkpt>
      <trkpt lat="46.89519" lon="5.50235">
        <ele>221</ele>
        <time>2020-09-29T14:51:08Z</time>
      </trkpt>
      <trkpt lat="46.89529" lon="5.50247">
        <ele>222</ele>
        <time>2020-09-29T14:51:25Z</time>
      </trkpt>
      <trkpt lat="46.89548" lon="5.50259">
        <ele>222</ele>
        <time>2020-09-29T14:51:53Z</time>
      </trkpt>
      <trkpt lat="46.89558" lon="5.50289">
        <ele>222</ele>
        <time>2020-09-29T14:52:23Z</time>
      </trkpt>
      <trkpt lat="46.89569" lon="5.50297">
        <ele>222</ele>
        <time>2020-09-29T14:52:39Z</time>
      </trkpt>
      <trkpt lat="46.89588" lon="5.50292">
        <ele>222</ele>
        <time>2020-09-29T14:53:05Z</time>
      </trkpt>
      <trkpt lat="46.89602" lon="5.50298">
        <ele>222</ele>
        <time>2020-09-29T14:53:25Z</time>
      </trkpt>
      <trkpt lat="46.89664" lon="5.50339">
        <ele>223</ele>
        <time>2020-09-29T14:54:55Z</time>
      </trkpt>
      <trkpt lat="46.89775" lon="5.5046">
        <ele>221</ele>
        <time>2020-09-29T14:58:00Z</time>
      </trkpt>
      <trkpt lat="46.89784" lon="5.50473">
        <ele>221</ele>
        <time>2020-09-29T14:58:17Z</time>
      </trkpt>
      <trkpt lat="46.89807" lon="5.50437">
        <ele>223</ele>
        <time>2020-09-29T14:59:02Z</time>
      </trkpt>
      <trkpt lat="46.90161" lon="5.49757">
        <ele>224</ele>
        <time>2020-09-29T15:12:01Z</time>
      </trkpt>
      <trkpt lat="46.90299" lon="5.49496">
        <ele>228</ele>
        <time>2020-09-29T15:17:02Z</time>
      </trkpt>
      <trkpt lat="46.904" lon="5.49305">
        <ele>228</ele>
        <time>2020-09-29T15:20:43Z</time>
      </trkpt>
      <trkpt lat="46.90423" lon="5.4926">
        <ele>226</ele>
        <time>2020-09-29T15:21:34Z</time>
      </trkpt>
      <trkpt lat="46.90533" lon="5.49052">
        <ele>223</ele>
        <time>2020-09-29T15:25:34Z</time>
      </trkpt>
      <trkpt lat="46.90543" lon="5.49031">
        <ele>222</ele>
        <time>2020-09-29T15:25:57Z</time>
      </trkpt>
      <trkpt lat="46.90552" lon="5.49016">
        <ele>222</ele>
        <time>2020-09-29T15:26:15Z</time>
      </trkpt>
      <trkpt lat="46.90572" lon="5.48989">
        <ele>221</ele>
        <time>2020-09-29T15:26:51Z</time>
      </trkpt>
      <trkpt lat="46.90598" lon="5.4895">
        <ele>219</ele>
        <time>2020-09-29T15:27:41Z</time>
      </trkpt>
      <trkpt lat="46.90602" lon="5.48921">
        <ele>218</ele>
        <time>2020-09-29T15:28:08Z</time>
      </trkpt>
      <trkpt lat="46.906" lon="5.48882">
        <ele>216</ele>
        <time>2020-09-29T15:28:44Z</time>
      </trkpt>
      <trkpt lat="46.90606" lon="5.48865">
        <ele>215</ele>
        <time>2020-09-29T15:29:01Z</time>
      </trkpt>
      <trkpt lat="46.90616" lon="5.48849">
        <ele>215</ele>
        <time>2020-09-29T15:29:21Z</time>
      </trkpt>
      <trkpt lat="46.90622" lon="5.4884">
        <ele>215</ele>
        <time>2020-09-29T15:29:32Z</time>
      </trkpt>
      <trkpt lat="46.90626" lon="5.48829">
        <ele>215</ele>
        <time>2020-09-29T15:29:44Z</time>
      </trkpt>
      <trkpt lat="46.90628" lon="5.48818">
        <ele>216</ele>
        <time>2020-09-29T15:29:54Z</time>
      </trkpt>
      <trkpt lat="46.90626" lon="5.48809">
        <ele>216</ele>
        <time>2020-09-29T15:30:03Z</time>
      </trkpt>
      <trkpt lat="46.90627" lon="5.48812">
        <ele>216.2</ele>
        <extensions>
          <visugpx:TrkExtension xmlns:visugpx="https://www.visugpx.com/editgpx/">
            <visugpx:node>29</visugpx:node>
            </visugpx:TrkExtension>
        </extensions>
      </trkpt>
      <trkpt lat="46.90624" lon="5.48798">
        <ele>216</ele>
        <time>2020-09-29T15:30:13Z</time>
      </trkpt>
      <trkpt lat="46.90622" lon="5.48829">
        <ele>215.8</ele>
        <extensions>
          <visugpx:TrkExtension xmlns:visugpx="https://www.visugpx.com/editgpx/">
            <visugpx:node>30</visugpx:node>
            </visugpx:TrkExtension>
        </extensions>
      </trkpt>
      <trkpt lat="46.90633" lon="5.48804">
        <ele>216.6</ele>
      </trkpt>
      <trkpt lat="46.90622" lon="5.48787">
        <ele>216.5</ele>
      </trkpt>
      <trkpt lat="46.9062" lon="5.48733">
        <ele>217.9</ele>
      </trkpt>
      <trkpt lat="46.90626" lon="5.48704">
        <ele>218.3</ele>
      </trkpt>
      <trkpt lat="46.90627" lon="5.48676">
        <ele>218.5</ele>
      </trkpt>
      <trkpt lat="46.90623" lon="5.48652">
        <ele>218.6</ele>
      </trkpt>
      <trkpt lat="46.90616" lon="5.48631">
        <ele>218.4</ele>
      </trkpt>
      <trkpt lat="46.90596" lon="5.48644">
        <ele>217.4</ele>
      </trkpt>
      <trkpt lat="46.90528" lon="5.48563">
        <ele>219.9</ele>
      </trkpt>
      <trkpt lat="46.90469" lon="5.48505">
        <ele>223.7</ele>
      </trkpt>
      <trkpt lat="46.90471" lon="5.48296">
        <ele>226</ele>
      </trkpt>
      <trkpt lat="46.90448" lon="5.48212">
        <ele>224.7</ele>
      </trkpt>
      <trkpt lat="46.90362" lon="5.48216">
        <ele>223.5</ele>
      </trkpt>
      <trkpt lat="46.90361" lon="5.48222">
        <ele>223.6</ele>
        <extensions>
          <visugpx:TrkExtension xmlns:visugpx="https://www.visugpx.com/editgpx/">
            <visugpx:node>28</visugpx:node>
            </visugpx:TrkExtension>
        </extensions>
      </trkpt>
      <trkpt lat="46.90351" lon="5.48273">
        <ele>225</ele>
      </trkpt>
      <trkpt lat="46.9024" lon="5.48298">
        <ele>223.8</ele>
      </trkpt>
      <trkpt lat="46.90151" lon="5.48268">
        <ele>223.2</ele>
      </trkpt>
      <trkpt lat="46.90095" lon="5.48323">
        <ele>223.1</ele>
      </trkpt>
      <trkpt lat="46.90044" lon="5.48498">
        <ele>223.7</ele>
      </trkpt>
      <trkpt lat="46.89946" lon="5.48485">
        <ele>225.7</ele>
      </trkpt>
      <trkpt lat="46.89817" lon="5.48392">
        <ele>226.5</ele>
      </trkpt>
      <trkpt lat="46.89675" lon="5.48509">
        <ele>224.2</ele>
        <extensions>
          <visugpx:TrkExtension xmlns:visugpx="https://www.visugpx.com/editgpx/">
            <visugpx:node>27</visugpx:node>
            </visugpx:TrkExtension>
        </extensions>
      </trkpt>
      <trkpt lat="46.89671" lon="5.48512">
        <ele>224.2</ele>
      </trkpt>
      <trkpt lat="46.89573" lon="5.48521">
        <ele>226.7</ele>
      </trkpt>
      <trkpt lat="46.89512" lon="5.48529">
        <ele>226</ele>
      </trkpt>
      <trkpt lat="46.89429" lon="5.48531">
        <ele>226.3</ele>
      </trkpt>
      <trkpt lat="46.89311" lon="5.48439">
        <ele>226.7</ele>
      </trkpt>
      <trkpt lat="46.89154" lon="5.4834">
        <ele>223.9</ele>
      </trkpt>
      <trkpt lat="46.89099" lon="5.48319">
        <ele>222</ele>
      </trkpt>
      <trkpt lat="46.89068" lon="5.48316">
        <ele>219.6</ele>
      </trkpt>
      <trkpt lat="46.89035" lon="5.48325">
        <ele>218.6</ele>
      </trkpt>
      <trkpt lat="46.88968" lon="5.48317">
        <ele>216.1</ele>
      </trkpt>
      <trkpt lat="46.88784" lon="5.48237">
        <ele>213.2</ele>
      </trkpt>
      <trkpt lat="46.88756" lon="5.48231">
        <ele>212.6</ele>
      </trkpt>
      <trkpt lat="46.88727" lon="5.48209">
        <ele>212.8</ele>
      </trkpt>
      <trkpt lat="46.88687" lon="5.48174">
        <ele>213</ele>
      </trkpt>
      <trkpt lat="46.88671" lon="5.48161">
        <ele>213.5</ele>
      </trkpt>
      <trkpt lat="46.88671" lon="5.48158">
        <ele>213.6</ele>
      </trkpt>
      <trkpt lat="46.88649" lon="5.48123">
        <ele>213.7</ele>
      </trkpt>
      <trkpt lat="46.88634" lon="5.48105">
        <ele>213.8</ele>
        <extensions>
          <visugpx:TrkExtension xmlns:visugpx="https://www.visugpx.com/editgpx/">
            <visugpx:node>26</visugpx:node>
            </visugpx:TrkExtension>
        </extensions>
      </trkpt>
      <trkpt lat="46.88615" lon="5.48082">
        <ele>214.7</ele>
      </trkpt>
      <trkpt lat="46.8856" lon="5.48052">
        <ele>213.5</ele>
      </trkpt>
      <trkpt lat="46.88526" lon="5.48039">
        <ele>213</ele>
      </trkpt>
      <trkpt lat="46.88363" lon="5.48012">
        <ele>211.9</ele>
      </trkpt>
      <trkpt lat="46.88285" lon="5.47994">
        <ele>210.9</ele>
      </trkpt>
      <trkpt lat="46.88285" lon="5.47994">
        <ele>210.9</ele>
        <extensions>
          <visugpx:TrkExtension xmlns:visugpx="https://www.visugpx.com/editgpx/">
            <visugpx:node>25</visugpx:node>
            </visugpx:TrkExtension>
        </extensions>
      </trkpt>
      <trkpt lat="46.88276" lon="5.47997">
        <ele>210.4</ele>
      </trkpt>
      <trkpt lat="46.88272" lon="5.48034">
        <ele>209.4</ele>
      </trkpt>
      <trkpt lat="46.88268" lon="5.48048">
        <ele>209.3</ele>
      </trkpt>
      <trkpt lat="46.88271" lon="5.4805">
        <ele>209.3</ele>
        <extensions>
          <visugpx:TrkExtension xmlns:visugpx="https://www.visugpx.com/editgpx/">
            <visugpx:node>24</visugpx:node>
            </visugpx:TrkExtension>
        </extensions>
      </trkpt>
      <trkpt lat="46.88268" lon="5.48048">
        <ele>209.3</ele>
      </trkpt>
      <trkpt lat="46.88264" lon="5.48059">
        <ele>209.1</ele>
      </trkpt>
      <trkpt lat="46.8825" lon="5.48072">
        <ele>208.6</ele>
      </trkpt>
      <trkpt lat="46.88212" lon="5.48099">
        <ele>206.5</ele>
      </trkpt>
      <trkpt lat="46.88197" lon="5.48128">
        <ele>206.3</ele>
      </trkpt>
      <trkpt lat="46.88188" lon="5.48126">
        <ele>206</ele>
        <extensions>
          <visugpx:TrkExtension xmlns:visugpx="https://www.visugpx.com/editgpx/">
            <visugpx:node>23</visugpx:node>
            </visugpx:TrkExtension>
        </extensions>
      </trkpt>
      <trkpt lat="46.88197" lon="5.48128">
        <ele>206.3</ele>
      </trkpt>
      <trkpt lat="46.88203" lon="5.48131">
        <ele>206.4</ele>
        <extensions>
          <visugpx:TrkExtension xmlns:visugpx="https://www.visugpx.com/editgpx/">
            <visugpx:node>29</visugpx:node>
            </visugpx:TrkExtension>
        </extensions>
      </trkpt>
    </trkseg>
  </trk>
</gpx>